createdAt,value
2022-08-18T00:02:30.361Z,89.46
2022-08-18T00:05:14.834Z,90.24
2022-08-18T00:07:59.359Z,89.43
2022-08-18T00:10:28.472Z,88.63
2022-08-18T00:13:01.289Z,88.31
2022-08-18T00:15:29.708Z,89.31
2022-08-18T00:18:22.763Z,90.03
2022-08-18T00:21:38.858Z,90.72
2022-08-18T00:24:06.416Z,92.41
2022-08-18T00:26:37.100Z,94.35
2022-08-18T00:29:15.741Z,94.82
2022-08-18T00:31:43.042Z,93.82
2022-08-18T00:34:16.214Z,93.48
2022-08-18T00:36:58.332Z,95.24
2022-08-18T00:39:27.435Z,95.96
2022-08-18T00:42:30.812Z,95.73
2022-08-18T00:45:25.587Z,96.59
2022-08-18T00:48:06.080Z,95.70
2022-08-18T00:50:54.593Z,94.06
2022-08-18T00:53:44.418Z,92.47
2022-08-18T00:56:30.807Z,91.97
2022-08-18T00:59:09.090Z,92.07
2022-08-18T01:01:38.328Z,91.76
2022-08-18T01:04:11.781Z,91.60
2022-08-18T01:07:00.906Z,91.93
2022-08-18T01:09:29.992Z,91.72
2022-08-18T01:11:57.233Z,91.54
2022-08-18T01:14:26.886Z,91.27
2022-08-18T01:17:32.193Z,91.38
2022-08-18T01:20:39.200Z,91.27
2022-08-18T01:23:23.841Z,92.21
2022-08-18T01:26:02.793Z,93.47
2022-08-18T01:28:54.392Z,93.54
2022-08-18T01:31:54.544Z,92.62
2022-08-18T01:34:40.839Z,96.26
2022-08-18T01:37:18.393Z,99.13
2022-08-18T01:41:24.376Z,99.82
2022-08-18T01:42:52.499Z,99.06
2022-08-18T01:45:43.833Z,99.24
2022-08-18T01:48:37.595Z,97.90
2022-08-18T01:51:07.379Z,97.66
2022-08-18T01:53:43.761Z,97.43
2022-08-18T01:56:23.117Z,97.62
2022-08-18T01:58:51.219Z,97.50
2022-08-18T02:01:36.688Z,96.93
2022-08-18T02:04:33.946Z,95.89
2022-08-18T02:07:17.463Z,96.02
2022-08-18T02:09:59.985Z,95.94
2022-08-18T02:12:33.256Z,96.14
2022-08-18T02:15:08.366Z,96.44
2022-08-18T02:17:39.372Z,96.35
2022-08-18T02:20:18.751Z,96.20
2022-08-18T02:22:49.563Z,96.94
2022-08-18T02:25:24.929Z,98.10
2022-08-18T02:27:58.851Z,99.75
2022-08-18T02:30:27.156Z,100.00
2022-08-18T02:32:58.227Z,100.00
2022-08-18T02:35:25.770Z,100.00
2022-08-18T02:38:07.640Z,100.00
2022-08-18T02:40:36.103Z,100.00
2022-08-18T02:43:09.508Z,100.00
2022-08-18T02:45:42.628Z,100.00
2022-08-18T02:48:32.033Z,100.00
2022-08-18T02:51:15.325Z,100.00
2022-08-18T02:53:45.829Z,100.00
2022-08-18T02:56:40.193Z,100.00
2022-08-18T02:59:10.503Z,100.00
2022-08-18T03:01:46.878Z,100.00
2022-08-18T03:04:38.717Z,100.00
2022-08-18T03:07:08.526Z,100.00
2022-08-18T03:09:42.828Z,99.30
2022-08-18T03:12:10.642Z,98.59
2022-08-18T03:14:40.437Z,99.37
2022-08-18T03:17:09.425Z,98.90
2022-08-18T03:19:37.209Z,98.39
2022-08-18T03:22:16.075Z,99.04
2022-08-18T03:25:16.276Z,99.18
2022-08-18T03:27:43.283Z,99.95
2022-08-18T03:30:11.946Z,100.00
2022-08-18T03:32:41.071Z,99.37
2022-08-18T03:35:18.933Z,98.74
2022-08-18T03:37:46.115Z,99.00
2022-08-18T03:40:25.367Z,100.00
2022-08-18T03:42:52.481Z,100.00
2022-08-18T03:45:32.349Z,100.00
2022-08-18T03:48:28.247Z,100.00
2022-08-18T03:51:27.001Z,100.00
2022-08-18T03:54:02.263Z,100.00
2022-08-18T03:56:41.419Z,100.00
2022-08-18T03:59:23.942Z,100.00
2022-08-18T04:01:59.565Z,100.00
2022-08-18T04:04:36.060Z,100.00
2022-08-18T04:07:17.622Z,100.00
2022-08-18T04:09:50.880Z,100.00
2022-08-18T04:12:41.300Z,100.00
2022-08-18T04:15:09.569Z,100.00
2022-08-18T04:17:56.290Z,100.00
2022-08-18T04:20:38.941Z,100.00
2022-08-18T04:23:43.643Z,100.00
2022-08-18T04:26:24.468Z,100.00
2022-08-18T04:28:51.816Z,100.00
2022-08-18T04:31:25.030Z,100.00
2022-08-18T04:33:53.306Z,100.00
2022-08-18T04:36:57.454Z,100.00
2022-08-18T04:39:26.877Z,100.00
2022-08-18T04:42:01.751Z,100.00
2022-08-18T04:44:29.893Z,100.00
2022-08-18T04:47:01.064Z,100.00
2022-08-18T04:49:32.334Z,100.00
2022-08-18T04:52:40.563Z,100.00
2022-08-18T04:55:30.683Z,100.00
2022-08-18T04:58:01.106Z,100.00
2022-08-18T05:00:28.162Z,100.00
2022-08-18T05:03:51.534Z,99.91
2022-08-18T05:06:30.970Z,99.68
2022-08-18T05:09:07.568Z,99.77
2022-08-18T05:11:58.106Z,100.00
2022-08-18T05:14:25.546Z,100.00
2022-08-18T05:16:58.941Z,99.75
2022-08-18T05:19:36.045Z,99.64
2022-08-18T05:22:27.848Z,99.86
2022-08-18T05:27:56.464Z,100.00
2022-08-18T05:30:24.750Z,100.00
2022-08-18T05:33:16.093Z,100.00
2022-08-18T05:36:03.675Z,100.00
2022-08-18T05:38:59.921Z,99.29
2022-08-18T05:41:34.156Z,98.36
2022-08-18T05:44:07.875Z,98.68
2022-08-18T05:46:50.800Z,98.41
2022-08-18T05:49:21.252Z,96.54
2022-08-18T05:52:03.466Z,95.03
2022-08-18T05:55:01.628Z,94.48
2022-08-18T05:57:38.514Z,94.99
2022-08-18T06:00:09.254Z,95.12
2022-08-18T06:02:51.535Z,93.74
2022-08-18T06:05:28.956Z,93.11
2022-08-18T06:08:17.165Z,92.26
2022-08-18T06:10:52.235Z,90.60
2022-08-18T06:14:01.744Z,89.15
2022-08-18T06:17:13.323Z,87.80
2022-08-18T06:20:35.133Z,86.00
2022-08-18T06:23:41.825Z,85.12
2022-08-18T06:26:59.664Z,83.28
2022-08-18T06:30:13.200Z,82.56
2022-08-18T06:33:04.852Z,82.36
2022-08-18T06:35:40.871Z,81.53
2022-08-18T06:38:46.166Z,80.57
2022-08-18T06:41:42.874Z,81.03
2022-08-18T06:44:45.856Z,80.31
2022-08-18T06:47:32.854Z,78.56
2022-08-18T06:50:44.803Z,77.20
2022-08-18T06:53:26.787Z,75.63
2022-08-18T06:55:57.225Z,75.72
2022-08-18T06:58:30.923Z,76.20
2022-08-18T07:01:37.503Z,75.69
2022-08-18T07:04:08.191Z,75.13
2022-08-18T07:06:39.401Z,74.81
2022-08-18T07:09:24.408Z,74.90
2022-08-18T07:12:09.399Z,72.57
2022-08-18T07:14:50.851Z,72.37
2022-08-18T07:17:53.139Z,72.02
2022-08-18T07:20:26.060Z,72.67
2022-08-18T07:23:08.107Z,71.75
2022-08-18T07:25:45.790Z,70.79
2022-08-18T07:28:50.181Z,69.45
2022-08-18T07:31:26.717Z,72.38
2022-08-18T07:34:12.729Z,72.21
2022-08-18T07:37:01.845Z,71.92
2022-08-18T07:39:48.377Z,71.43
2022-08-18T07:43:02.108Z,69.75
2022-08-18T07:45:38.661Z,69.74
2022-08-18T07:51:20.021Z,65.57
2022-08-18T07:54:05.361Z,62.97
2022-08-18T07:56:56.285Z,62.54
2022-08-18T07:59:33.422Z,63.71
2022-08-18T08:02:18.872Z,61.67
2022-08-18T08:05:08.807Z,62.03
2022-08-18T08:07:44.135Z,59.81
2022-08-18T08:10:39.969Z,59.66
2022-08-18T08:13:51.753Z,60.44
2022-08-18T08:16:46.566Z,62.11
2022-08-18T08:19:49.393Z,61.66
2022-08-18T08:22:29.766Z,58.26
2022-08-18T08:25:46.450Z,60.59
2022-08-18T08:28:43.281Z,60.14
2022-08-18T08:31:54.818Z,59.71
2022-08-18T08:34:54.789Z,59.08
2022-08-18T08:37:33.892Z,59.16
2022-08-18T08:40:03.082Z,60.08
2022-08-18T08:42:45.978Z,59.00
2022-08-18T08:45:22.252Z,58.20
2022-08-18T08:48:11.678Z,57.44
2022-08-18T08:51:33.763Z,57.51
2022-08-18T08:54:23.855Z,57.04
2022-08-18T08:57:01.778Z,56.59
2022-08-18T08:59:29.946Z,57.02
2022-08-18T09:02:48.923Z,56.21
2022-08-18T09:05:45.388Z,55.92
2022-08-18T09:08:41.631Z,53.58
2022-08-18T09:11:27.134Z,56.01
2022-08-18T09:14:07.330Z,55.18
2022-08-18T09:16:59.750Z,55.72
2022-08-18T09:20:09.291Z,54.85
2022-08-18T09:22:52.737Z,54.27
2022-08-18T09:25:48.506Z,53.60
2022-08-18T09:28:23.923Z,53.45
2022-08-18T09:31:10.152Z,52.90
2022-08-18T09:33:46.012Z,51.23
2022-08-18T09:36:44.515Z,51.09
2022-08-18T09:39:59.073Z,49.36
2022-08-18T09:42:50.655Z,49.30
2022-08-18T09:45:33.337Z,48.55
2022-08-18T09:48:30.825Z,46.93
2022-08-18T09:51:32.930Z,46.21
2022-08-18T09:54:32.191Z,46.50
2022-08-18T09:57:19.671Z,47.94
2022-08-18T10:02:38.688Z,45.85
2022-08-18T10:05:20.314Z,47.26
2022-08-18T10:08:21.284Z,47.42
2022-08-18T10:11:40.935Z,49.10
2022-08-18T10:14:45.698Z,48.55
2022-08-18T10:17:35.199Z,46.78
2022-08-18T10:20:26.187Z,47.90
2022-08-18T10:23:01.337Z,46.99
2022-08-18T10:25:48.422Z,45.23
2022-08-18T10:28:57.491Z,46.29
2022-08-18T10:31:27.313Z,44.40
2022-08-18T10:34:16.337Z,40.67
2022-08-18T10:37:19.525Z,41.18
2022-08-18T10:40:02.111Z,41.56
2022-08-18T10:42:39.243Z,42.61
2022-08-18T10:46:24.438Z,41.08
2022-08-18T10:49:21.790Z,39.05
2022-08-18T10:52:11.060Z,39.33
2022-08-18T10:55:06.259Z,38.20
2022-08-18T10:58:01.821Z,37.43
2022-08-18T11:01:01.259Z,37.08
2022-08-18T11:03:55.962Z,37.21
2022-08-18T11:06:26.316Z,37.93
2022-08-18T11:09:04.249Z,37.44
2022-08-18T11:12:02.125Z,34.51
2022-08-18T11:14:56.282Z,35.21
2022-08-18T11:18:10.402Z,34.45
2022-08-18T11:20:42.994Z,34.33
2022-08-18T11:23:17.286Z,34.68
2022-08-18T11:26:18.360Z,33.92
2022-08-18T11:28:49.871Z,33.60
2022-08-18T11:31:19.458Z,34.22
2022-08-18T11:33:53.084Z,34.46
2022-08-18T11:36:31.099Z,34.74
2022-08-18T11:39:01.356Z,35.01
2022-08-18T11:41:48.007Z,33.86
2022-08-18T11:44:25.135Z,32.68
2022-08-18T11:47:09.495Z,33.36
2022-08-18T11:50:08.965Z,32.70
2022-08-18T11:53:13.784Z,32.51
2022-08-18T11:56:03.398Z,31.89
2022-08-18T11:58:59.990Z,30.33
2022-08-18T12:01:57.147Z,29.81
2022-08-18T12:04:40.200Z,30.31
2022-08-18T12:07:51.109Z,29.83
2022-08-18T12:10:47.537Z,30.13
2022-08-18T12:13:25.764Z,30.31
2022-08-18T12:16:35.366Z,29.72
2022-08-18T12:19:15.335Z,29.33
2022-08-18T12:22:11.933Z,28.52
2022-08-18T12:24:40.424Z,29.01
2022-08-18T12:27:21.277Z,28.93
2022-08-18T12:32:56.092Z,29.38
2022-08-18T12:35:30.344Z,29.03
2022-08-18T12:38:00.359Z,28.46
2022-08-18T12:40:43.463Z,28.31
2022-08-18T12:43:11.242Z,29.00
2022-08-18T12:45:41.656Z,28.55
2022-08-18T12:48:26.988Z,28.01
2022-08-18T12:50:58.415Z,29.27
2022-08-18T12:53:59.339Z,30.16
2022-08-18T12:56:36.340Z,30.02
2022-08-18T12:59:07.170Z,31.44
2022-08-18T13:01:40.461Z,30.61
2022-08-18T13:04:26.950Z,32.33
2022-08-18T13:07:00.545Z,32.27
2022-08-18T13:09:52.856Z,32.90
2022-08-18T13:12:27.335Z,32.59
2022-08-18T13:14:55.448Z,32.16
2022-08-18T13:17:33.532Z,33.24
2022-08-18T13:20:09.889Z,32.37
2022-08-18T13:22:40.643Z,31.57
2022-08-18T13:25:28.858Z,31.49
2022-08-18T13:28:15.468Z,31.18
2022-08-18T13:30:46.817Z,30.20
2022-08-18T13:33:53.529Z,30.97
2022-08-18T13:36:02.006Z,30.77
2022-08-18T13:38:30.088Z,32.02
2022-08-18T13:41:06.278Z,30.95
2022-08-18T13:43:39.175Z,31.63
2022-08-18T13:46:08.213Z,31.19
2022-08-18T13:48:38.155Z,31.49
2022-08-18T13:51:11.379Z,32.66
2022-08-18T13:53:50.963Z,31.69
2022-08-18T13:56:31.245Z,31.73
2022-08-18T13:58:59.034Z,32.50
2022-08-18T14:01:44.528Z,29.70
2022-08-18T14:04:15.102Z,30.82
2022-08-18T14:06:56.436Z,31.32
2022-08-18T14:09:42.481Z,33.12
2022-08-18T14:12:29.620Z,32.81
2022-08-18T14:15:00.856Z,32.37
2022-08-18T14:17:51.669Z,31.38
2022-08-18T14:20:48.148Z,31.67
2022-08-18T14:23:39.862Z,30.89
2022-08-18T14:26:45.997Z,30.20
2022-08-18T14:29:47.015Z,30.83
2022-08-18T14:32:07.759Z,30.03
2022-08-18T14:34:41.453Z,30.73
2022-08-18T14:37:43.028Z,31.58
2022-08-18T14:40:20.467Z,31.67
2022-08-18T14:42:54.497Z,31.11
2022-08-18T14:45:27.625Z,30.99
2022-08-18T14:48:06.695Z,31.17
2022-08-18T14:50:44.847Z,31.77
2022-08-18T14:53:37.174Z,32.27
2022-08-18T14:56:08.749Z,31.39
2022-08-18T14:58:37.945Z,31.20
2022-08-18T15:01:10.375Z,31.05
2022-08-18T15:03:39.812Z,30.60
2022-08-18T15:06:08.325Z,31.51
2022-08-18T15:08:49.071Z,30.64
2022-08-18T15:11:24.915Z,31.23
2022-08-18T15:13:55.146Z,31.54
2022-08-18T15:16:31.532Z,31.74
2022-08-18T15:19:59.858Z,30.85
2022-08-18T15:22:29.178Z,30.44
2022-08-18T15:25:26.320Z,30.54
2022-08-18T15:27:56.340Z,30.22
2022-08-18T15:30:26.713Z,30.56
2022-08-18T15:32:59.368Z,31.39
2022-08-18T15:35:35.714Z,32.03
2022-08-18T15:38:07.399Z,31.90
2022-08-18T15:40:41.616Z,32.85
2022-08-18T15:43:12.916Z,33.01
2022-08-18T15:45:56.473Z,33.09
2022-08-18T15:48:28.865Z,34.30
2022-08-18T15:51:11.747Z,33.78
2022-08-18T15:53:57.903Z,34.79
2022-08-18T15:56:43.339Z,35.10
2022-08-18T15:59:12.840Z,34.28
2022-08-18T16:01:43.438Z,33.91
2022-08-18T16:04:24.284Z,34.48
2022-08-18T16:06:52.526Z,34.17
2022-08-18T16:09:33.995Z,34.75
2022-08-18T16:12:50.639Z,35.37
2022-08-18T16:15:23.466Z,34.60
2022-08-18T16:18:00.194Z,34.44
2022-08-18T16:20:29.670Z,35.51
2022-08-18T16:22:59.185Z,36.07
2022-08-18T16:25:28.997Z,36.96
2022-08-18T16:28:13.645Z,37.00
2022-08-18T16:30:47.466Z,37.05
2022-08-18T16:33:18.555Z,37.21
2022-08-18T16:36:25.649Z,36.86
2022-08-18T16:38:53.955Z,37.59
2022-08-18T16:41:29.636Z,37.08
2022-08-18T16:43:58.940Z,37.38
2022-08-18T16:46:27.864Z,38.00
2022-08-18T16:49:11.173Z,37.83
2022-08-18T16:51:45.002Z,38.79
2022-08-18T16:54:14.666Z,38.67
2022-08-18T16:57:10.828Z,38.92
2022-08-18T16:59:57.732Z,39.36
2022-08-18T17:02:47.111Z,39.58
2022-08-18T17:05:24.232Z,39.34
2022-08-18T17:07:52.334Z,39.78
2022-08-18T17:13:40.805Z,40.09
2022-08-18T17:16:16.911Z,40.42
2022-08-18T17:18:46.050Z,39.86
2022-08-18T17:21:50.425Z,40.04
2022-08-18T17:24:31.721Z,41.11
2022-08-18T17:27:27.121Z,41.44
2022-08-18T17:30:40.017Z,41.00
2022-08-18T17:33:16.129Z,42.16
2022-08-18T17:35:56.811Z,41.05
2022-08-18T17:38:49.713Z,42.52
2022-08-18T17:41:25.602Z,41.78
2022-08-18T17:43:56.548Z,41.54
2022-08-18T17:46:37.699Z,42.65
2022-08-18T17:49:18.170Z,42.83
2022-08-18T17:51:52.607Z,43.33
2022-08-18T17:54:46.558Z,43.46
2022-08-18T17:57:33.751Z,45.20
2022-08-18T18:00:14.191Z,44.66
2022-08-18T18:02:45.481Z,46.10
2022-08-18T18:05:16.270Z,46.69
2022-08-18T18:07:52.252Z,47.34
2022-08-18T18:10:56.491Z,47.08
2022-08-18T18:13:37.367Z,47.87
2022-08-18T18:16:26.251Z,48.19
2022-08-18T18:19:06.560Z,49.15
2022-08-18T18:21:58.947Z,49.20
2022-08-18T18:24:32.598Z,49.54
2022-08-18T18:27:22.748Z,50.01
2022-08-18T18:30:07.438Z,50.09
2022-08-18T18:32:59.438Z,50.57
2022-08-18T18:35:34.285Z,50.93
2022-08-18T18:38:23.829Z,50.79
2022-08-18T18:41:38.025Z,51.17
2022-08-18T18:44:10.335Z,51.34
2022-08-18T18:46:53.587Z,51.51
2022-08-18T18:49:42.559Z,51.77
2022-08-18T18:52:41.442Z,51.67
2022-08-18T18:55:17.641Z,52.13
2022-08-18T18:58:14.614Z,52.60
2022-08-18T19:00:59.704Z,53.02
2022-08-18T19:04:07.518Z,53.22
2022-08-18T19:06:48.658Z,53.84
2022-08-18T19:09:30.058Z,54.03
2022-08-18T19:12:43.602Z,54.52
2022-08-18T19:15:19.806Z,54.99
2022-08-18T19:18:02.423Z,55.08
2022-08-18T19:20:37.263Z,55.53
2022-08-18T19:23:06.848Z,55.87
2022-08-18T19:25:51.535Z,56.32
2022-08-18T19:28:36.997Z,56.32
2022-08-18T19:31:40.091Z,57.02
2022-08-18T19:34:19.057Z,57.19
2022-08-18T19:37:14.930Z,57.84
2022-08-18T19:40:05.796Z,57.66
2022-08-18T19:42:45.534Z,58.44
2022-08-18T19:45:45.804Z,58.69
2022-08-18T19:48:39.461Z,58.60
2022-08-18T19:51:36.370Z,58.44
2022-08-18T19:54:40.540Z,58.80
2022-08-18T19:57:26.181Z,59.34
2022-08-18T20:00:31.191Z,59.55
2022-08-18T20:03:35.431Z,59.96
2022-08-18T20:06:27.637Z,60.41
2022-08-18T20:09:02.596Z,59.93
2022-08-18T20:11:49.797Z,60.71
2022-08-18T20:14:19.300Z,60.60
2022-08-18T20:17:23.017Z,60.29
2022-08-18T20:19:59.766Z,60.84
2022-08-18T20:22:43.893Z,61.08
2022-08-18T20:25:20.305Z,61.83
2022-08-18T20:28:13.308Z,61.74
2022-08-18T20:31:12.852Z,61.95
2022-08-18T20:34:04.404Z,62.35
2022-08-18T20:36:37.062Z,62.23
2022-08-18T20:39:34.671Z,62.44
2022-08-18T20:42:07.829Z,62.44
2022-08-18T20:44:45.623Z,62.64
2022-08-18T20:47:35.334Z,62.45
2022-08-18T20:50:40.549Z,62.73
2022-08-18T20:53:35.024Z,62.69
2022-08-18T20:56:43.018Z,63.17
2022-08-18T20:59:23.352Z,63.27
2022-08-18T21:01:59.415Z,64.35
2022-08-18T21:04:50.695Z,63.66
2022-08-18T21:07:40.317Z,63.42
2022-08-18T21:10:23.751Z,63.25
2022-08-18T21:13:04.426Z,63.51
2022-08-18T21:15:38.344Z,63.56
2022-08-18T21:18:25.489Z,63.17
2022-08-18T21:21:27.108Z,63.11
2022-08-18T21:24:00.255Z,63.08
2022-08-18T21:26:48.465Z,63.03
2022-08-18T21:29:16.887Z,63.19
2022-08-18T21:31:48.316Z,62.88
2022-08-18T21:34:34.405Z,62.49
2022-08-18T21:37:08.296Z,62.83
2022-08-18T21:39:59.918Z,62.87
2022-08-18T21:43:05.599Z,62.93
2022-08-18T21:45:59.686Z,63.31
2022-08-18T21:48:31.859Z,62.96
2022-08-18T21:51:02.658Z,63.26
2022-08-18T21:53:41.870Z,62.92
2022-08-18T21:56:29.784Z,63.01
2022-08-18T21:59:17.439Z,63.09
2022-08-18T22:01:57.284Z,62.56
2022-08-18T22:04:47.735Z,62.66
2022-08-18T22:07:35.691Z,62.88
2022-08-18T22:10:45.671Z,62.82
2022-08-18T22:13:41.621Z,63.17
2022-08-18T22:16:30.482Z,62.66
2022-08-18T22:19:19.131Z,63.30
2022-08-18T22:22:29.473Z,63.37
2022-08-18T22:25:03.127Z,63.35
2022-08-18T22:27:31.469Z,63.07
2022-08-18T22:30:04.456Z,62.76
2022-08-18T22:32:46.136Z,63.19
2022-08-18T22:35:35.572Z,62.79
2022-08-18T22:38:21.666Z,63.00
2022-08-18T22:41:26.350Z,63.31
2022-08-18T22:43:54.642Z,63.92
2022-08-18T22:46:25.426Z,64.09
2022-08-18T22:48:56.487Z,64.32
2022-08-18T22:51:27.156Z,65.48
2022-08-18T22:54:02.642Z,64.48
2022-08-18T22:56:34.303Z,65.28
2022-08-18T22:59:23.702Z,65.64
2022-08-18T23:01:58.620Z,66.23
2022-08-18T23:04:27.486Z,67.11
2022-08-18T23:06:56.576Z,67.21
2022-08-18T23:09:40.869Z,67.23
2022-08-18T23:12:14.025Z,67.67
2022-08-18T23:14:46.878Z,67.26
2022-08-18T23:17:38.652Z,68.10
2022-08-18T23:20:18.205Z,68.44
2022-08-18T23:23:01.754Z,68.13
2022-08-18T23:25:42.287Z,68.80
2022-08-18T23:28:12.282Z,69.14
2022-08-18T23:30:49.542Z,68.61
2022-08-18T23:33:21.921Z,68.14
2022-08-18T23:35:58.250Z,68.19
2022-08-18T23:38:31.712Z,68.84
2022-08-18T23:41:21.894Z,68.92
2022-08-18T23:43:51.983Z,68.94
2022-08-18T23:46:32.207Z,69.05
2022-08-18T23:49:01.415Z,69.05
2022-08-18T23:51:44.521Z,69.36
2022-08-18T23:54:32.318Z,68.88
2022-08-18T23:57:00.136Z,68.58
2022-08-18T23:59:43.532Z,69.29
